createdAt,value
2018-09-18T00:00:11.289Z,15.88
2018-09-18T00:02:39.557Z,15.75
2018-09-18T00:05:07.590Z,15.05
2018-09-18T00:07:36.074Z,13.65
2018-09-18T00:10:04.482Z,14.45
2018-09-18T00:12:32.779Z,14.58
2018-09-18T00:15:00.715Z,13.80
2018-09-18T00:17:28.934Z,13.90
2018-09-18T00:19:56.957Z,14.07
2018-09-18T00:22:25.135Z,13.03
2018-09-18T00:24:53.435Z,14.23
2018-09-18T00:27:21.471Z,14.45
2018-09-18T00:29:49.602Z,13.60
2018-09-18T00:32:17.907Z,14.35
2018-09-18T00:34:46.004Z,14.87
2018-09-18T00:37:14.032Z,13.65
2018-09-18T00:39:42.259Z,14.30
2018-09-18T00:42:10.510Z,13.48
2018-09-18T00:44:38.624Z,14.00
2018-09-18T00:47:06.658Z,16.87
2018-09-18T00:49:34.708Z,14.28
2018-09-18T00:52:02.859Z,12.23
2018-09-18T00:54:30.759Z,13.15
2018-09-18T00:56:58.974Z,13.80
2018-09-18T00:59:26.995Z,13.60
2018-09-18T01:01:55.036Z,14.23
2018-09-18T01:04:23.195Z,12.78
2018-09-18T01:06:51.305Z,12.95
2018-09-18T01:09:19.643Z,13.93
2018-09-18T01:11:47.675Z,13.93
2018-09-18T01:14:15.650Z,13.62
2018-09-18T01:16:43.801Z,13.65
2018-09-18T01:19:11.937Z,13.05
2018-09-18T01:21:40.051Z,13.10
2018-09-18T01:24:08.409Z,12.93
2018-09-18T01:26:36.402Z,13.30
2018-09-18T01:29:04.485Z,12.47
2018-09-18T01:31:32.561Z,13.62
2018-09-18T01:34:00.654Z,12.68
2018-09-18T01:36:28.735Z,12.20
2018-09-18T01:38:56.787Z,12.10
2018-09-18T01:41:24.885Z,11.95
2018-09-18T01:43:52.901Z,12.50
2018-09-18T01:46:21.039Z,13.20
2018-09-18T01:48:49.385Z,12.03
2018-09-18T01:51:17.392Z,12.85
2018-09-18T01:53:45.537Z,11.60
2018-09-18T01:56:13.618Z,11.95
2018-09-18T01:58:41.640Z,12.73
2018-09-18T02:01:09.755Z,13.20
2018-09-18T02:03:38.101Z,12.35
2018-09-18T02:06:06.581Z,11.43
2018-09-18T02:08:34.439Z,12.80
2018-09-18T02:11:02.513Z,11.88
2018-09-18T02:13:30.722Z,10.80
2018-09-18T02:15:58.767Z,11.93
2018-09-18T02:18:28.121Z,10.70
2018-09-18T02:20:56.182Z,11.00
2018-09-18T02:23:24.493Z,10.80
2018-09-18T02:25:53.773Z,12.05
2018-09-18T02:28:21.889Z,11.57
2018-09-18T02:30:49.924Z,10.25
2018-09-18T02:33:18.026Z,10.23
2018-09-18T02:35:46.090Z,10.25
2018-09-18T02:38:14.164Z,12.30
2018-09-18T02:40:42.243Z,10.63
2018-09-18T02:43:10.275Z,10.80
2018-09-18T02:45:38.457Z,12.60
2018-09-18T02:48:07.253Z,10.60
2018-09-18T02:50:35.458Z,10.70
2018-09-18T02:53:03.529Z,12.47
2018-09-18T02:55:31.617Z,11.08
2018-09-18T02:57:59.619Z,10.82
2018-09-18T03:00:27.742Z,10.93
2018-09-18T03:02:55.819Z,9.93
2018-09-18T03:05:23.899Z,10.08
2018-09-18T03:07:51.935Z,10.88
2018-09-18T03:10:20.015Z,9.93
2018-09-18T03:12:49.294Z,10.08
2018-09-18T03:15:17.390Z,11.48
2018-09-18T03:17:45.468Z,10.15
2018-09-18T03:20:13.499Z,10.08
2018-09-18T03:22:42.093Z,9.80
2018-09-18T03:25:10.234Z,10.20
2018-09-18T03:27:38.460Z,10.08
2018-09-18T03:30:06.846Z,13.60
2018-09-18T03:32:34.662Z,9.88
2018-09-18T03:35:02.472Z,10.35
2018-09-18T03:37:30.602Z,10.72
2018-09-18T03:39:58.795Z,10.32
2018-09-18T03:42:27.074Z,9.88
2018-09-18T03:44:55.164Z,10.82
2018-09-18T03:47:23.207Z,10.30
2018-09-18T03:49:53.159Z,9.80
2018-09-18T03:52:21.203Z,9.63
2018-09-18T03:54:49.316Z,10.20
2018-09-18T03:57:17.364Z,10.65
2018-09-18T03:59:45.405Z,9.13
2018-09-18T04:02:14.470Z,10.35
2018-09-18T04:04:42.431Z,10.40
2018-09-18T04:07:10.629Z,10.90
2018-09-18T04:09:39.005Z,11.08
2018-09-18T04:12:07.318Z,12.05
2018-09-18T04:14:35.439Z,11.65
2018-09-18T04:17:03.449Z,10.58
2018-09-18T04:19:31.556Z,11.00
2018-09-18T04:21:59.610Z,12.60
2018-09-18T04:24:27.667Z,14.23
2018-09-18T04:26:55.636Z,13.50
2018-09-18T04:29:23.872Z,12.40
2018-09-18T04:31:51.834Z,10.98
2018-09-18T04:34:19.983Z,11.55
2018-09-18T04:36:48.161Z,18.37
2018-09-18T04:39:15.993Z,12.65
2018-09-18T04:41:44.171Z,18.10
2018-09-18T04:44:13.466Z,15.23
2018-09-18T04:46:41.557Z,12.75
2018-09-18T04:49:09.676Z,14.43
2018-09-18T04:51:37.557Z,12.95
2018-09-18T04:54:05.853Z,15.68
2018-09-18T04:56:33.696Z,17.15
2018-09-18T04:59:01.945Z,12.70
2018-09-18T05:01:29.951Z,13.50
2018-09-18T05:03:59.347Z,18.17
2018-09-18T05:06:27.623Z,14.65
2018-09-18T05:08:56.173Z,12.75
2018-09-18T05:11:24.620Z,12.93
2018-09-18T05:13:52.684Z,13.30
2018-09-18T05:16:20.870Z,14.83
2018-09-18T05:18:48.906Z,13.98
2018-09-18T05:21:17.381Z,17.00
2018-09-18T05:23:45.998Z,15.58
2018-09-18T05:26:14.096Z,15.55
2018-09-18T05:28:42.094Z,13.90
2018-09-18T05:31:10.295Z,19.85
2018-09-18T05:33:38.650Z,15.38
2018-09-18T05:36:07.877Z,12.70
2018-09-18T05:38:36.261Z,12.65
2018-09-18T05:41:04.333Z,12.70
2018-09-18T05:43:32.410Z,12.50
2018-09-18T05:46:04.065Z,11.88
2018-09-18T05:48:33.687Z,12.88
2018-09-18T05:51:01.979Z,12.33
2018-09-18T05:53:30.002Z,14.35
2018-09-18T05:55:58.290Z,14.95
2018-09-18T05:58:26.518Z,14.90
2018-09-18T06:00:54.827Z,14.35
2018-09-18T06:03:23.167Z,12.93
2018-09-18T06:05:51.066Z,19.65
2018-09-18T06:08:22.690Z,13.80
2018-09-18T06:10:50.574Z,17.98
2018-09-18T06:13:18.820Z,11.93
2018-09-18T06:15:46.745Z,12.75
2018-09-18T06:18:14.930Z,18.50
2018-09-18T06:20:43.610Z,14.37
2018-09-18T06:23:11.760Z,11.83
2018-09-18T06:25:40.086Z,15.03
2018-09-18T06:28:08.197Z,11.48
2018-09-18T06:30:36.180Z,12.13
2018-09-18T06:33:04.371Z,9.60
2018-09-18T06:35:32.717Z,9.77
2018-09-18T06:38:01.958Z,9.77
2018-09-18T06:40:29.981Z,9.20
2018-09-18T06:42:58.066Z,8.63
2018-09-18T06:45:26.242Z,8.80
2018-09-18T06:47:55.323Z,8.40
2018-09-18T06:50:23.571Z,9.83
2018-09-18T06:52:51.523Z,9.23
2018-09-18T06:55:19.586Z,9.90
2018-09-18T06:57:47.770Z,9.73
2018-09-18T07:00:16.735Z,9.43
2018-09-18T07:02:46.021Z,10.77
2018-09-18T07:05:14.005Z,9.27
2018-09-18T07:07:42.229Z,9.10
2018-09-18T07:10:10.278Z,8.90
2018-09-18T07:12:38.224Z,8.30
2018-09-18T07:15:06.542Z,9.33
2018-09-18T07:17:34.803Z,8.73
2018-09-18T07:20:03.003Z,10.33
2018-09-18T07:22:31.202Z,8.50
2018-09-18T07:24:59.389Z,8.40
2018-09-18T07:27:27.367Z,8.63
2018-09-18T07:29:55.420Z,8.30
2018-09-18T07:32:23.505Z,9.63
2018-09-18T07:34:51.454Z,9.50
2018-09-18T07:37:19.668Z,7.87
2018-09-18T07:39:47.686Z,9.80
2018-09-18T07:42:15.851Z,8.03
2018-09-18T07:44:44.241Z,10.20
2018-09-18T07:47:12.289Z,8.03
2018-09-18T07:49:40.292Z,8.87
2018-09-18T07:52:08.471Z,6.93
2018-09-18T07:54:36.744Z,9.47
2018-09-18T07:57:09.028Z,8.77
2018-09-18T07:59:37.199Z,13.13
2018-09-18T08:02:05.299Z,9.37
2018-09-18T08:04:33.238Z,12.30
2018-09-18T08:07:01.919Z,10.03
2018-09-18T08:09:30.084Z,9.90
2018-09-18T08:11:58.171Z,8.77
2018-09-18T08:14:26.217Z,8.57
2018-09-18T08:16:54.310Z,10.47
2018-09-18T08:19:22.455Z,9.67
2018-09-18T08:21:50.661Z,8.70
2018-09-18T08:24:18.872Z,8.33
2018-09-18T08:26:46.855Z,9.70
2018-09-18T08:29:17.148Z,8.07
2018-09-18T08:31:45.097Z,8.57
2018-09-18T08:34:13.283Z,8.20
2018-09-18T08:36:41.657Z,8.40
2018-09-18T08:39:10.041Z,7.87
2018-09-18T08:41:39.302Z,7.50
2018-09-18T08:44:07.338Z,8.00
2018-09-18T08:46:35.391Z,9.30
2018-09-18T08:49:03.488Z,9.80
2018-09-18T08:51:31.630Z,9.13
2018-09-18T08:53:59.729Z,7.70
2018-09-18T08:56:27.766Z,8.23
2018-09-18T08:58:55.759Z,8.57
2018-09-18T09:01:23.686Z,8.27
2018-09-18T09:03:51.963Z,9.57
2018-09-18T09:06:20.171Z,9.10
2018-09-18T09:08:49.054Z,8.63
2018-09-18T09:11:17.090Z,11.80
2018-09-18T09:13:45.297Z,8.20
2018-09-18T09:16:13.151Z,9.53
2018-09-18T09:18:41.389Z,8.03
2018-09-18T09:21:09.319Z,7.30
2018-09-18T09:23:37.433Z,8.37
2018-09-18T09:26:05.844Z,8.30
2018-09-18T09:28:33.787Z,11.93
2018-09-18T09:31:01.976Z,11.70
2018-09-18T09:33:30.109Z,12.00
2018-09-18T09:35:58.144Z,14.77
2018-09-18T09:38:26.203Z,12.47
2018-09-18T09:40:56.755Z,10.80
2018-09-18T09:43:24.767Z,10.67
2018-09-18T09:45:52.758Z,11.27
2018-09-18T09:48:21.081Z,11.60
2018-09-18T09:50:49.319Z,11.67
2018-09-18T09:53:17.409Z,11.23
2018-09-18T09:55:45.496Z,10.93
2018-09-18T09:58:13.574Z,11.27
2018-09-18T10:00:47.230Z,11.07
2018-09-18T10:03:15.604Z,10.33
2018-09-18T10:05:43.502Z,10.70
2018-09-18T10:08:12.174Z,9.73
2018-09-18T10:10:40.272Z,11.13
2018-09-18T10:13:08.491Z,11.57
2018-09-18T10:15:36.880Z,11.03
2018-09-18T10:18:04.748Z,11.70
2018-09-18T10:20:32.986Z,11.73
2018-09-18T10:23:01.065Z,11.30
2018-09-18T10:25:29.051Z,11.07
2018-09-18T10:27:57.197Z,11.43
2018-09-18T10:30:25.167Z,11.10
2018-09-18T10:32:53.158Z,11.73
2018-09-18T10:35:21.386Z,11.93
2018-09-18T10:37:49.503Z,10.93
2018-09-18T10:40:17.396Z,11.27
2018-09-18T10:42:45.480Z,11.93
2018-09-18T10:45:14.022Z,10.60
2018-09-18T10:47:41.939Z,11.93
2018-09-18T10:50:10.077Z,10.43
2018-09-18T10:52:38.205Z,11.83
2018-09-18T10:55:06.238Z,11.50
2018-09-18T10:57:34.237Z,11.67
2018-09-18T11:00:02.450Z,12.10
2018-09-18T11:02:30.749Z,10.73
2018-09-18T11:04:58.835Z,10.37
2018-09-18T11:07:26.792Z,11.37
2018-09-18T11:09:55.056Z,11.73
2018-09-18T11:12:23.279Z,11.33
2018-09-18T11:14:51.500Z,12.40
2018-09-18T11:17:19.802Z,11.17
2018-09-18T11:19:47.857Z,9.20
2018-09-18T11:22:16.402Z,10.33
2018-09-18T11:24:44.375Z,10.53
2018-09-18T11:27:12.379Z,9.93
2018-09-18T11:29:40.946Z,10.30
2018-09-18T11:32:08.861Z,9.30
2018-09-18T11:34:38.147Z,8.83
2018-09-18T11:37:06.369Z,9.07
2018-09-18T11:39:34.596Z,9.23
2018-09-18T11:42:02.625Z,9.63
2018-09-18T11:44:31.031Z,9.53
2018-09-18T11:46:59.111Z,9.10
2018-09-18T11:49:27.223Z,9.80
2018-09-18T11:51:55.252Z,9.97
2018-09-18T11:54:23.404Z,9.83
2018-09-18T11:56:51.322Z,8.97
2018-09-18T11:59:19.454Z,9.50
2018-09-18T12:01:47.434Z,10.73
2018-09-18T12:04:15.168Z,10.87
2018-09-18T12:06:43.218Z,11.10
2018-09-18T12:09:11.840Z,11.17
2018-09-18T12:11:40.797Z,11.07
2018-09-18T12:14:08.679Z,10.77
2018-09-18T12:16:36.887Z,10.17
2018-09-18T12:19:05.126Z,15.23
2018-09-18T12:21:33.297Z,10.60
2018-09-18T12:24:01.426Z,9.70
2018-09-18T12:26:30.738Z,11.30
2018-09-18T12:29:00.050Z,10.30
2018-09-18T12:31:28.043Z,9.43
2018-09-18T12:33:56.155Z,10.80
2018-09-18T12:36:24.211Z,14.80
2018-09-18T12:38:52.299Z,10.30
2018-09-18T12:41:20.397Z,11.00
2018-09-18T12:43:48.482Z,11.10
2018-09-18T12:46:16.494Z,13.37
2018-09-18T12:48:44.569Z,11.33
2018-09-18T12:51:12.712Z,11.37
2018-09-18T12:53:41.065Z,13.20
2018-09-18T12:56:09.467Z,11.53
2018-09-18T12:58:37.832Z,11.63
2018-09-18T13:01:05.849Z,14.20
2018-09-18T13:03:33.905Z,11.97
2018-09-18T13:06:01.907Z,11.50
2018-09-18T13:08:30.118Z,10.63
2018-09-18T13:10:58.149Z,10.63
2018-09-18T13:13:26.253Z,12.10
2018-09-18T13:15:54.315Z,11.80
2018-09-18T13:18:22.344Z,11.97
2018-09-18T13:20:50.452Z,11.60
2018-09-18T13:23:18.500Z,11.37
2018-09-18T13:25:46.514Z,12.60
2018-09-18T13:28:14.664Z,12.17
2018-09-18T13:30:42.641Z,11.53
2018-09-18T13:33:10.798Z,11.50
2018-09-18T13:35:38.981Z,11.53
2018-09-18T13:38:07.489Z,11.90
2018-09-18T13:40:35.468Z,11.70
2018-09-18T13:43:03.305Z,12.47
2018-09-18T13:45:31.415Z,12.00
2018-09-18T13:47:59.529Z,13.70
2018-09-18T13:50:27.706Z,12.70
2018-09-18T13:52:55.965Z,12.53
2018-09-18T13:55:24.091Z,13.27
2018-09-18T13:57:52.497Z,13.10
2018-09-18T14:00:20.910Z,13.37
2018-09-18T14:02:49.192Z,13.13
2018-09-18T14:05:17.224Z,12.50
2018-09-18T14:07:45.625Z,12.10
2018-09-18T14:10:14.880Z,11.77
2018-09-18T14:12:42.985Z,11.30
2018-09-18T14:15:11.197Z,12.30
2018-09-18T14:17:39.531Z,12.30
2018-09-18T14:20:07.563Z,11.60
2018-09-18T14:22:36.304Z,12.10
2018-09-18T14:25:04.777Z,10.97
2018-09-18T14:27:32.885Z,10.50
2018-09-18T14:30:00.946Z,11.20
2018-09-18T14:32:29.482Z,13.33
2018-09-18T14:34:57.435Z,12.20
2018-09-18T14:37:25.439Z,11.30
2018-09-18T14:39:53.589Z,12.50
2018-09-18T14:42:21.822Z,12.17
2018-09-18T14:44:50.076Z,12.70
2018-09-18T14:47:18.110Z,13.17
2018-09-18T14:49:46.701Z,13.47
2018-09-18T14:52:18.298Z,13.20
2018-09-18T14:54:46.760Z,12.73
2018-09-18T14:57:15.021Z,14.13
2018-09-18T14:59:43.154Z,12.70
2018-09-18T15:02:12.390Z,13.83
2018-09-18T15:04:40.977Z,13.30
2018-09-18T15:07:09.147Z,13.30
2018-09-18T15:09:37.221Z,13.07
2018-09-18T15:12:05.490Z,12.57
2018-09-18T15:14:33.660Z,12.23
2018-09-18T15:17:01.735Z,13.17
2018-09-18T15:19:29.891Z,11.50
2018-09-18T15:21:58.239Z,11.30
2018-09-18T15:24:26.627Z,13.20
2018-09-18T15:26:54.664Z,11.40
2018-09-18T15:29:22.683Z,11.97
2018-09-18T15:31:51.069Z,12.93
2018-09-18T15:34:19.166Z,13.13
2018-09-18T15:36:47.155Z,12.53
2018-09-18T15:39:15.365Z,12.03
2018-09-18T15:41:43.232Z,12.07
2018-09-18T15:44:11.417Z,11.20
2018-09-18T15:46:41.449Z,12.27
2018-09-18T15:49:09.785Z,13.43
2018-09-18T15:51:37.904Z,12.13
2018-09-18T15:54:06.419Z,13.47
2018-09-18T15:56:34.581Z,12.23
2018-09-18T15:59:02.677Z,13.83
2018-09-18T16:01:30.765Z,12.90
2018-09-18T16:03:59.270Z,12.60
2018-09-18T16:06:27.535Z,13.83
2018-09-18T16:08:55.844Z,14.23
2018-09-18T16:11:23.844Z,14.00
2018-09-18T16:13:51.888Z,14.40
2018-09-18T16:16:20.044Z,14.50
2018-09-18T16:18:48.078Z,16.17
2018-09-18T16:21:16.141Z,15.03
2018-09-18T16:23:44.278Z,14.07
2018-09-18T16:26:12.385Z,14.57
2018-09-18T16:28:40.240Z,15.43
2018-09-18T16:31:08.484Z,14.23
2018-09-18T16:33:36.637Z,14.40
2018-09-18T16:36:04.998Z,14.37
2018-09-18T16:38:33.968Z,13.10
2018-09-18T16:41:01.962Z,12.67
2018-09-18T16:43:30.179Z,12.77
2018-09-18T16:45:58.535Z,14.27
2018-09-18T16:48:27.268Z,12.77
2018-09-18T16:50:55.595Z,12.90
2018-09-18T16:53:23.874Z,14.80
2018-09-18T16:55:51.831Z,14.13
2018-09-18T16:58:20.022Z,13.27
2018-09-18T17:00:48.182Z,14.10
2018-09-18T17:03:16.109Z,15.37
2018-09-18T17:05:44.377Z,13.80
2018-09-18T17:08:12.668Z,14.80
2018-09-18T17:10:40.739Z,17.03
2018-09-18T17:13:08.906Z,18.00
2018-09-18T17:15:37.196Z,18.37
2018-09-18T17:18:05.269Z,15.93
2018-09-18T17:20:33.388Z,18.13
2018-09-18T17:23:01.721Z,16.97
2018-09-18T17:25:30.724Z,18.73
2018-09-18T17:27:58.541Z,17.40
2018-09-18T17:30:26.569Z,20.00
2018-09-18T17:32:55.718Z,19.00
2018-09-18T17:35:26.175Z,19.10
2018-09-18T17:37:54.513Z,19.00
2018-09-18T17:40:22.965Z,16.93
2018-09-18T17:42:51.170Z,17.70
2018-09-18T17:45:19.195Z,18.60
2018-09-18T17:47:47.272Z,18.10
2018-09-18T17:50:15.419Z,18.47
2018-09-18T17:52:43.535Z,17.97
2018-09-18T17:55:11.960Z,18.97
2018-09-18T17:57:39.856Z,19.43
2018-09-18T18:00:08.030Z,17.97
2018-09-18T18:02:36.498Z,17.73
2018-09-18T18:05:04.774Z,18.70
2018-09-18T18:07:35.238Z,19.03
2018-09-18T18:10:03.548Z,18.07
2018-09-18T18:13:36.031Z,17.90
2018-09-18T18:16:04.307Z,19.50
2018-09-18T18:18:33.583Z,19.87
2018-09-18T18:21:01.885Z,17.80
2018-09-18T18:23:30.221Z,21.20
2018-09-18T18:25:58.448Z,21.10
2018-09-18T18:28:26.399Z,21.35
2018-09-18T18:30:54.598Z,21.70
2018-09-18T18:33:22.677Z,20.27
2018-09-18T18:35:50.735Z,21.13
2018-09-18T18:38:18.825Z,22.30
2018-09-18T18:40:47.170Z,23.43
2018-09-18T18:43:15.287Z,20.95
2018-09-18T18:45:43.620Z,19.70
2018-09-18T18:48:11.849Z,20.53
2018-09-18T18:50:40.075Z,20.27
2018-09-18T18:53:08.004Z,20.33
2018-09-18T18:55:36.182Z,20.43
2018-09-18T18:58:04.241Z,20.37
2018-09-18T19:00:32.151Z,21.20
2018-09-18T19:03:00.187Z,19.73
2018-09-18T19:05:28.122Z,19.98
2018-09-18T19:07:56.199Z,22.60
2018-09-18T19:10:24.344Z,21.50
2018-09-18T19:12:52.321Z,20.90
2018-09-18T19:15:20.396Z,20.57
2018-09-18T19:17:48.501Z,22.05
2018-09-18T19:20:16.494Z,20.25
2018-09-18T19:22:44.827Z,19.12
2018-09-18T19:25:12.910Z,19.92
2018-09-18T19:27:41.992Z,19.60
2018-09-18T19:30:10.191Z,19.45
2018-09-18T19:32:38.448Z,20.00
2018-09-18T19:35:06.533Z,19.65
2018-09-18T19:37:34.544Z,20.60
2018-09-18T19:40:02.743Z,19.87
2018-09-18T19:42:30.727Z,20.00
2018-09-18T19:44:58.841Z,19.98
2018-09-18T19:47:27.753Z,20.30
2018-09-18T19:49:55.851Z,18.55
2018-09-18T19:52:25.072Z,20.02
2018-09-18T19:54:53.310Z,20.48
2018-09-18T19:57:21.364Z,19.55
2018-09-18T19:59:49.386Z,19.62
2018-09-18T20:02:17.908Z,21.12
2018-09-18T20:04:46.013Z,19.65
2018-09-18T20:07:14.270Z,21.35
2018-09-18T20:09:44.360Z,19.82
2018-09-18T20:12:13.630Z,19.07
2018-09-18T20:14:41.866Z,19.05
2018-09-18T20:17:10.194Z,19.40
2018-09-18T20:19:38.242Z,17.90
2018-09-18T20:22:07.512Z,17.95
2018-09-18T20:24:35.754Z,19.23
2018-09-18T20:27:04.010Z,19.12
2018-09-18T20:29:32.213Z,19.40
2018-09-18T20:32:00.073Z,19.77
2018-09-18T20:34:28.298Z,20.12
2018-09-18T20:36:56.402Z,20.48
2018-09-18T20:39:24.669Z,22.67
2018-09-18T20:41:52.795Z,21.57
2018-09-18T20:44:20.845Z,19.67
2018-09-18T20:46:49.224Z,19.55
2018-09-18T20:49:17.200Z,18.25
2018-09-18T20:51:45.454Z,19.45
2018-09-18T20:54:13.737Z,18.45
2018-09-18T20:56:41.850Z,17.87
2018-09-18T20:59:09.868Z,19.15
2018-09-18T21:01:37.951Z,17.45
2018-09-18T21:04:06.167Z,16.95
2018-09-18T21:06:34.393Z,17.90
2018-09-18T21:09:02.519Z,17.17
2018-09-18T21:11:30.542Z,18.87
2018-09-18T21:13:58.673Z,17.45
2018-09-18T21:16:26.973Z,17.75
2018-09-18T21:18:55.097Z,17.32
2018-09-18T21:21:23.139Z,18.30
2018-09-18T21:23:51.208Z,18.42
2018-09-18T21:26:19.544Z,17.10
2018-09-18T21:28:48.145Z,17.75
2018-09-18T21:31:16.720Z,16.90
2018-09-18T21:33:45.896Z,18.20
2018-09-18T21:36:13.929Z,17.77
2018-09-18T21:38:42.071Z,18.62
2018-09-18T21:41:10.242Z,18.20
2018-09-18T21:43:38.535Z,18.50
2018-09-18T21:46:06.694Z,17.10
2018-09-18T21:48:35.825Z,19.92
2018-09-18T21:51:03.997Z,18.25
2018-09-18T21:53:32.079Z,18.90
2018-09-18T21:56:00.230Z,19.10
2018-09-18T21:58:28.080Z,17.85
2018-09-18T22:00:56.197Z,16.73
2018-09-18T22:03:24.765Z,17.15
2018-09-18T22:05:52.599Z,16.50
2018-09-18T22:08:20.899Z,18.62
2018-09-18T22:10:49.163Z,19.17
2018-09-18T22:13:17.242Z,18.87
2018-09-18T22:15:45.343Z,18.17
2018-09-18T22:18:13.368Z,16.48
2018-09-18T22:20:43.046Z,15.72
2018-09-18T22:23:11.406Z,16.48
2018-09-18T22:25:39.949Z,16.37
2018-09-18T22:28:08.027Z,16.50
2018-09-18T22:30:36.194Z,16.40
2018-09-18T22:33:04.256Z,15.38
2018-09-18T22:35:32.314Z,17.73
2018-09-18T22:38:00.452Z,15.93
2018-09-18T22:40:28.759Z,15.05
2018-09-18T22:43:00.461Z,16.00
2018-09-18T22:45:28.649Z,16.00
2018-09-18T22:47:57.775Z,15.85
2018-09-18T22:50:25.901Z,14.18
2018-09-18T22:52:53.710Z,14.03
2018-09-18T22:55:21.897Z,13.18
2018-09-18T22:57:49.793Z,15.00
2018-09-18T23:00:18.367Z,11.75
2018-09-18T23:02:46.280Z,12.53
2018-09-18T23:05:14.451Z,15.45
2018-09-18T23:07:42.513Z,12.75
2018-09-18T23:10:10.586Z,11.30
2018-09-18T23:12:38.614Z,12.63
2018-09-18T23:15:06.786Z,12.03
2018-09-18T23:17:34.833Z,11.90
2018-09-18T23:20:03.258Z,11.25
2018-09-18T23:22:31.507Z,11.68
2018-09-18T23:24:59.628Z,12.33
2018-09-18T23:27:27.743Z,9.03
2018-09-18T23:29:56.020Z,10.58
2018-09-18T23:32:24.078Z,10.72
2018-09-18T23:34:52.790Z,9.68
2018-09-18T23:37:20.926Z,8.50
2018-09-18T23:39:49.220Z,8.78
2018-09-18T23:42:17.342Z,8.83
2018-09-18T23:44:45.318Z,8.85
2018-09-18T23:47:13.661Z,8.83
2018-09-18T23:49:41.977Z,8.65
2018-09-18T23:52:10.315Z,7.90
2018-09-18T23:54:38.663Z,9.20
2018-09-18T23:57:07.050Z,8.20
2018-09-18T23:59:35.438Z,7.05
